createdAt,value
2022-10-18T00:00:20.471Z,97.94
2022-10-18T00:01:20.453Z,97.74
2022-10-18T00:02:20.563Z,97.94
2022-10-18T00:03:20.433Z,97.74
2022-10-18T00:04:20.413Z,97.94
2022-10-18T00:05:20.414Z,97.79
2022-10-18T00:06:20.393Z,97.89
2022-10-18T00:07:20.384Z,97.59
2022-10-18T00:08:20.392Z,97.69
2022-10-18T00:09:20.370Z,97.79
2022-10-18T00:10:20.353Z,97.59
2022-10-18T00:11:20.344Z,97.59
2022-10-18T00:12:20.333Z,97.59
2022-10-18T00:13:20.342Z,97.49
2022-10-18T00:14:20.303Z,97.59
2022-10-18T00:15:20.303Z,97.49
2022-10-18T00:16:20.285Z,97.33
2022-10-18T00:17:20.274Z,97.79
2022-10-18T00:18:20.266Z,97.49
2022-10-18T00:19:20.281Z,97.39
2022-10-18T00:20:20.244Z,97.59
2022-10-18T00:21:20.236Z,97.19
2022-10-18T00:22:20.218Z,97.44
2022-10-18T00:23:20.214Z,97.13
2022-10-18T00:24:20.203Z,96.73
2022-10-18T00:25:20.216Z,96.43
2022-10-18T00:26:20.175Z,96.43
2022-10-18T00:27:20.174Z,96.43
2022-10-18T00:28:20.157Z,96.33
2022-10-18T00:29:20.154Z,95.87
2022-10-18T00:30:20.165Z,95.17
2022-10-18T00:31:20.125Z,94.76
2022-10-18T00:32:20.115Z,95.27
2022-10-18T00:33:20.105Z,95.07
2022-10-18T00:34:20.096Z,94.67
2022-10-18T00:35:20.085Z,95.07
2022-10-18T00:36:20.095Z,94.87
2022-10-18T00:37:20.064Z,95.47
2022-10-18T00:38:20.046Z,95.27
2022-10-18T00:39:20.056Z,95.57
2022-10-18T00:40:20.027Z,95.62
2022-10-18T00:41:20.028Z,96.08
2022-10-18T00:42:20.029Z,95.77
2022-10-18T00:43:19.999Z,95.67
2022-10-18T00:44:19.990Z,95.67
2022-10-18T00:45:19.980Z,95.77
2022-10-18T00:46:19.964Z,95.97
2022-10-18T00:47:19.955Z,96.08
2022-10-18T00:48:19.975Z,96.13
2022-10-18T00:49:19.937Z,96.33
2022-10-18T00:50:19.917Z,96.53
2022-10-18T00:51:19.915Z,96.73
2022-10-18T00:52:19.897Z,96.63
2022-10-18T00:53:19.895Z,96.78
2022-10-18T00:54:19.889Z,96.17
2022-10-18T00:55:19.868Z,95.87
2022-10-18T00:56:19.856Z,95.47
2022-10-18T00:57:19.838Z,95.77
2022-10-18T00:58:19.837Z,95.47
2022-10-18T00:59:19.880Z,95.87
2022-10-18T01:00:19.808Z,95.77
2022-10-18T01:01:22.294Z,95.77
2022-10-18T01:02:19.789Z,96.17
2022-10-18T01:03:19.768Z,95.37
2022-10-18T01:04:19.768Z,94.96
2022-10-18T01:05:19.779Z,95.47
2022-10-18T01:06:19.739Z,95.27
2022-10-18T01:07:19.728Z,95.47
2022-10-18T01:08:19.719Z,95.67
2022-10-18T01:09:19.707Z,94.76
2022-10-18T01:10:19.703Z,95.17
2022-10-18T01:11:19.710Z,95.27
2022-10-18T01:12:19.677Z,95.22
2022-10-18T01:13:22.089Z,95.47
2022-10-18T01:14:20.649Z,94.96
2022-10-18T01:15:19.639Z,94.87
2022-10-18T01:16:19.630Z,94.67
2022-10-18T01:17:19.639Z,94.87
2022-10-18T01:18:19.605Z,94.46
2022-10-18T01:19:19.589Z,94.16
2022-10-18T01:20:19.580Z,92.79
2022-10-18T01:21:19.570Z,93.40
2022-10-18T01:22:19.559Z,92.95
2022-10-18T01:23:19.569Z,94.16
2022-10-18T01:24:19.530Z,93.30
2022-10-18T01:25:19.520Z,92.69
2022-10-18T01:26:19.518Z,92.59
2022-10-18T01:27:19.501Z,92.90
2022-10-18T01:28:19.491Z,93.26
2022-10-18T01:29:19.490Z,93.76
2022-10-18T01:30:19.468Z,93.96
2022-10-18T01:31:19.500Z,94.36
2022-10-18T01:32:19.451Z,94.46
2022-10-18T01:33:19.432Z,94.62
2022-10-18T01:34:19.450Z,94.76
2022-10-18T01:35:19.402Z,94.82
2022-10-18T01:36:19.402Z,94.62
2022-10-18T01:37:19.381Z,94.52
2022-10-18T01:38:19.372Z,94.62
2022-10-18T01:39:19.382Z,94.52
2022-10-18T01:40:19.381Z,94.62
2022-10-18T01:41:19.340Z,94.42
2022-10-18T01:42:19.334Z,94.42
2022-10-18T01:43:19.323Z,94.32
2022-10-18T01:44:19.312Z,94.32
2022-10-18T01:45:19.292Z,94.21
2022-10-18T01:46:19.311Z,94.21
2022-10-18T01:47:19.275Z,94.32
2022-10-18T01:48:19.263Z,93.61
2022-10-18T01:49:19.250Z,93.81
2022-10-18T01:50:19.243Z,92.40
2022-10-18T01:51:19.253Z,92.45
2022-10-18T01:52:19.232Z,92.60
2022-10-18T01:53:19.214Z,92.20
2022-10-18T01:54:19.205Z,92.75
2022-10-18T01:55:19.183Z,91.64
2022-10-18T01:56:19.172Z,91.39
2022-10-18T01:57:19.202Z,91.34
2022-10-18T01:58:19.157Z,90.94
2022-10-18T01:59:19.161Z,86.71
2022-10-18T02:00:19.162Z,83.42
2022-10-18T02:01:19.226Z,81.10
2022-10-18T02:02:19.112Z,80.04
2022-10-18T02:03:19.127Z,78.89
2022-10-18T02:04:19.087Z,79.13
2022-10-18T02:05:19.074Z,79.43
2022-10-18T02:06:19.066Z,80.13
2022-10-18T02:07:19.052Z,81.04
2022-10-18T02:08:23.386Z,80.33
2022-10-18T02:09:19.024Z,79.83
2022-10-18T02:10:19.046Z,79.83
2022-10-18T02:11:19.006Z,79.83
2022-10-18T02:12:18.997Z,80.44
2022-10-18T02:13:18.983Z,79.73
2022-10-18T02:14:18.994Z,80.74
2022-10-18T02:15:18.963Z,81.65
2022-10-18T02:16:18.953Z,81.45
2022-10-18T02:17:18.945Z,79.73
2022-10-18T02:18:18.925Z,80.64
2022-10-18T02:19:19.000Z,81.85
2022-10-18T02:20:18.937Z,80.64
2022-10-18T02:21:18.896Z,79.43
2022-10-18T02:22:18.885Z,81.04
2022-10-18T02:23:18.875Z,81.65
2022-10-18T02:24:18.865Z,82.42
2022-10-18T02:25:18.847Z,82.82
2022-10-18T02:26:18.858Z,82.01
2022-10-18T02:27:18.824Z,84.23
2022-10-18T02:28:18.887Z,85.14
2022-10-18T02:29:18.801Z,85.34
2022-10-18T02:30:18.796Z,83.93
2022-10-18T02:31:18.776Z,83.52
2022-10-18T02:32:19.596Z,81.85
2022-10-18T02:33:18.756Z,76.71
2022-10-18T02:34:18.746Z,75.70
2022-10-18T02:35:18.727Z,72.11
2022-10-18T02:36:18.726Z,69.99
2022-10-18T02:37:18.770Z,69.95
2022-10-18T02:38:18.725Z,68.65
2022-10-18T02:39:18.685Z,69.05
2022-10-18T02:40:18.676Z,69.32
2022-10-18T02:41:18.666Z,70.53
2022-10-18T02:42:18.656Z,71.06
2022-10-18T02:43:18.638Z,73.38
2022-10-18T02:44:18.650Z,73.68
2022-10-18T02:45:18.618Z,71.26
2022-10-18T02:46:18.667Z,73.32
2022-10-18T02:47:18.598Z,68.98
2022-10-18T02:48:18.589Z,63.64
2022-10-18T02:49:18.597Z,62.32
2022-10-18T02:50:18.566Z,60.00
2022-10-18T02:51:18.570Z,58.39
2022-10-18T02:52:18.538Z,55.66
2022-10-18T02:53:18.526Z,57.58
2022-10-18T02:54:18.534Z,54.25
2022-10-18T02:55:18.585Z,55.74
2022-10-18T02:56:18.498Z,54.13
2022-10-18T02:57:18.481Z,57.15
2022-10-18T02:58:18.472Z,55.64
2022-10-18T02:59:18.458Z,56.85
2022-10-18T03:00:18.489Z,55.74
2022-10-18T03:01:18.476Z,57.25
2022-10-18T03:02:18.429Z,56.04
2022-10-18T03:03:18.408Z,57.65
2022-10-18T03:04:18.504Z,58.80
2022-10-18T03:05:18.392Z,58.19
2022-10-18T03:06:18.380Z,57.89
2022-10-18T03:07:18.380Z,57.89
2022-10-18T03:08:18.359Z,59.17
2022-10-18T03:09:18.360Z,56.95
2022-10-18T03:10:18.339Z,62.32
2022-10-18T03:11:18.319Z,59.50
2022-10-18T03:12:18.310Z,58.69
2022-10-18T03:13:18.369Z,61.21
2022-10-18T03:14:18.290Z,60.51
2022-10-18T03:15:18.271Z,62.12
2022-10-18T03:16:18.268Z,61.52
2022-10-18T03:17:18.252Z,62.40
2022-10-18T03:18:18.240Z,61.59
2022-10-18T03:19:18.240Z,62.19
2022-10-18T03:20:18.232Z,61.39
2022-10-18T03:21:18.210Z,63.70
2022-10-18T03:22:18.220Z,62.60
2022-10-18T03:23:18.192Z,62.16
2022-10-18T03:24:18.200Z,63.78
2022-10-18T03:25:18.160Z,64.78
2022-10-18T03:26:18.151Z,65.92
2022-10-18T03:27:18.141Z,68.44
2022-10-18T03:28:18.131Z,69.75
2022-10-18T03:29:18.119Z,69.48
2022-10-18T03:30:18.131Z,67.84
2022-10-18T03:31:18.141Z,67.97
2022-10-18T03:32:18.085Z,67.87
2022-10-18T03:33:18.073Z,68.24
2022-10-18T03:34:18.061Z,67.94
2022-10-18T03:35:18.050Z,67.94
2022-10-18T03:36:18.063Z,68.65
2022-10-18T03:37:18.025Z,70.06
2022-10-18T03:38:18.020Z,67.43
2022-10-18T03:39:18.001Z,65.12
2022-10-18T03:40:18.056Z,61.79
2022-10-18T03:41:18.003Z,61.49
2022-10-18T03:42:17.971Z,59.67
2022-10-18T03:43:17.953Z,58.44
2022-10-18T03:44:17.953Z,58.54
2022-10-18T03:45:17.932Z,58.23
2022-10-18T03:46:17.923Z,58.34
2022-10-18T03:47:17.931Z,59.52
2022-10-18T03:48:17.903Z,62.57
2022-10-18T03:49:17.890Z,64.38
2022-10-18T03:50:17.882Z,63.67
2022-10-18T03:51:17.863Z,62.77
2022-10-18T03:52:17.884Z,63.27
2022-10-18T03:53:17.842Z,62.16
2022-10-18T03:54:17.833Z,63.85
2022-10-18T03:55:17.824Z,64.18
2022-10-18T03:56:17.822Z,65.09
2022-10-18T03:57:17.793Z,65.89
2022-10-18T03:58:17.804Z,66.80
2022-10-18T03:59:17.773Z,67.00
2022-10-18T04:00:24.813Z,70.02
2022-10-18T04:01:17.785Z,69.32
2022-10-18T04:02:17.744Z,69.42
2022-10-18T04:03:17.755Z,70.62
2022-10-18T04:04:17.726Z,68.01
2022-10-18T04:05:17.711Z,68.48
2022-10-18T04:06:17.695Z,68.48
2022-10-18T04:07:17.684Z,69.49
2022-10-18T04:08:17.675Z,72.20
2022-10-18T04:09:17.676Z,71.70
2022-10-18T04:10:17.653Z,74.38
2022-10-18T04:11:17.634Z,76.74
2022-10-18T04:12:17.626Z,77.95
2022-10-18T04:13:17.615Z,79.25
2022-10-18T04:14:17.625Z,80.97
2022-10-18T04:15:17.594Z,81.17
2022-10-18T04:16:17.596Z,81.37
2022-10-18T04:17:17.577Z,80.97
2022-10-18T04:18:17.559Z,82.68
2022-10-18T04:19:17.563Z,82.07
2022-10-18T04:20:17.556Z,81.17
2022-10-18T04:21:17.525Z,82.38
2022-10-18T04:22:17.517Z,82.84
2022-10-18T04:23:17.505Z,82.34
2022-10-18T04:24:17.495Z,83.75
2022-10-18T04:25:17.481Z,84.65
2022-10-18T04:26:17.486Z,83.84
2022-10-18T04:27:17.458Z,84.65
2022-10-18T04:28:17.447Z,84.65
2022-10-18T04:29:17.436Z,84.55
2022-10-18T04:30:17.427Z,84.65
2022-10-18T04:31:17.435Z,85.46
2022-10-18T04:32:17.396Z,85.86
2022-10-18T04:33:17.405Z,85.05
2022-10-18T04:34:17.385Z,86.26
2022-10-18T04:35:17.365Z,86.06
2022-10-18T04:36:17.357Z,87.57
2022-10-18T04:37:17.365Z,88.42
2022-10-18T04:38:17.337Z,85.30
2022-10-18T04:39:17.319Z,84.89
2022-10-18T04:40:17.307Z,84.09
2022-10-18T04:41:17.296Z,84.45
2022-10-18T04:42:17.288Z,84.85
2022-10-18T04:43:17.296Z,85.66
2022-10-18T04:44:17.267Z,86.87
2022-10-18T04:45:17.247Z,85.76
2022-10-18T04:46:17.259Z,84.89
2022-10-18T04:47:17.228Z,84.65
2022-10-18T04:48:17.221Z,84.95
2022-10-18T04:49:17.228Z,85.16
2022-10-18T04:50:17.199Z,85.76
2022-10-18T04:51:17.181Z,86.06
2022-10-18T04:52:17.177Z,86.06
2022-10-18T04:53:17.160Z,86.97
2022-10-18T04:54:17.149Z,87.37
2022-10-18T04:55:17.158Z,88.07
2022-10-18T04:56:17.129Z,87.37
2022-10-18T04:57:17.119Z,87.67
2022-10-18T04:58:17.108Z,87.27
2022-10-18T04:59:17.090Z,87.37
2022-10-18T05:00:17.080Z,86.46
2022-10-18T05:01:17.136Z,86.97
2022-10-18T05:02:17.072Z,87.47
2022-10-18T05:03:17.057Z,87.17
2022-10-18T05:04:17.039Z,87.57
2022-10-18T05:05:17.029Z,87.27
2022-10-18T05:06:17.038Z,86.66
2022-10-18T05:07:17.001Z,87.07
2022-10-18T05:08:16.992Z,86.97
2022-10-18T05:09:16.984Z,87.37
2022-10-18T05:10:16.971Z,87.07
2022-10-18T05:11:16.959Z,87.27
2022-10-18T05:12:16.962Z,87.17
2022-10-18T05:13:16.937Z,86.66
2022-10-18T05:14:16.921Z,87.47
2022-10-18T05:15:16.911Z,86.97
2022-10-18T05:16:16.951Z,87.17
2022-10-18T05:17:16.910Z,86.52
2022-10-18T05:18:16.871Z,86.93
2022-10-18T05:19:16.870Z,86.93
2022-10-18T05:20:16.859Z,86.83
2022-10-18T05:21:16.843Z,87.23
2022-10-18T05:22:16.840Z,86.43
2022-10-18T05:23:16.839Z,88.23
2022-10-18T05:24:16.803Z,86.83
2022-10-18T05:25:16.805Z,86.46
2022-10-18T05:26:16.782Z,86.43
2022-10-18T05:27:16.786Z,86.83
2022-10-18T05:28:38.167Z,86.72
2022-10-18T05:29:17.847Z,86.83
2022-10-18T05:30:16.748Z,86.83
2022-10-18T05:31:16.736Z,86.72
2022-10-18T05:32:16.725Z,87.73
2022-10-18T05:33:16.711Z,89.14
2022-10-18T05:34:16.712Z,87.53
2022-10-18T05:35:16.691Z,88.13
2022-10-18T05:36:16.676Z,87.83
2022-10-18T05:37:16.683Z,88.03
2022-10-18T05:38:16.654Z,88.64
2022-10-18T05:39:16.675Z,88.03
2022-10-18T05:40:16.635Z,88.23
2022-10-18T05:41:16.615Z,88.13
2022-10-18T05:42:16.603Z,88.64
2022-10-18T05:43:16.593Z,88.43
2022-10-18T05:44:16.583Z,88.74
2022-10-18T05:45:16.593Z,88.54
2022-10-18T05:46:16.554Z,88.54
2022-10-18T05:47:16.574Z,88.23
2022-10-18T05:48:16.534Z,88.64
2022-10-18T05:49:16.527Z,88.43
2022-10-18T05:50:16.512Z,88.54
2022-10-18T05:51:16.529Z,87.43
2022-10-18T05:52:16.483Z,87.73
2022-10-18T05:53:31.825Z,88.23
2022-10-18T05:54:17.465Z,88.03
2022-10-18T05:55:16.456Z,88.34
2022-10-18T05:56:16.474Z,88.43
2022-10-18T05:57:16.459Z,88.64
2022-10-18T05:58:16.423Z,88.74
2022-10-18T05:59:16.414Z,89.04
2022-10-18T06:00:16.397Z,89.44
2022-10-18T06:01:16.392Z,89.04
2022-10-18T06:02:16.423Z,89.75
2022-10-18T06:03:16.385Z,89.84
2022-10-18T06:04:16.353Z,89.28
2022-10-18T06:05:16.355Z,89.54
2022-10-18T06:06:16.325Z,89.18
2022-10-18T06:07:16.327Z,88.78
2022-10-18T06:08:16.305Z,88.58
2022-10-18T06:09:16.315Z,87.47
2022-10-18T06:10:16.276Z,87.37
2022-10-18T06:11:16.276Z,87.53
2022-10-18T06:12:16.259Z,88.34
2022-10-18T06:13:16.254Z,88.94
2022-10-18T06:14:16.267Z,88.74
2022-10-18T06:15:16.226Z,88.03
2022-10-18T06:16:16.286Z,88.23
2022-10-18T06:17:16.205Z,88.84
2022-10-18T06:18:16.196Z,88.88
2022-10-18T06:19:16.186Z,88.58
2022-10-18T06:20:16.185Z,88.18
2022-10-18T06:21:16.157Z,88.23
2022-10-18T06:22:16.290Z,88.43
2022-10-18T06:23:16.147Z,88.28
2022-10-18T06:24:16.118Z,87.43
2022-10-18T06:25:16.136Z,87.73
2022-10-18T06:26:16.098Z,88.23
2022-10-18T06:27:16.098Z,88.23
2022-10-18T06:28:16.077Z,88.94
2022-10-18T06:29:16.073Z,88.94
2022-10-18T06:30:16.057Z,89.14
2022-10-18T06:31:16.077Z,89.44
2022-10-18T06:32:16.027Z,89.34
2022-10-18T06:33:16.028Z,89.44
2022-10-18T06:34:16.019Z,89.14
2022-10-18T06:35:15.998Z,89.24
2022-10-18T06:36:15.987Z,89.14
2022-10-18T06:37:16.007Z,89.75
2022-10-18T06:38:15.969Z,89.44
2022-10-18T06:39:15.958Z,89.64
2022-10-18T06:40:15.948Z,89.84
2022-10-18T06:41:15.938Z,90.05
2022-10-18T06:42:18.005Z,90.25
2022-10-18T06:43:21.207Z,89.75
2022-10-18T06:44:16.898Z,89.44
2022-10-18T06:45:15.890Z,89.54
2022-10-18T06:46:15.870Z,89.54
2022-10-18T06:47:15.867Z,89.24
2022-10-18T06:48:15.893Z,89.04
2022-10-18T06:49:18.308Z,89.54
2022-10-18T06:50:15.821Z,89.75
2022-10-18T06:51:15.829Z,89.75
2022-10-18T06:52:15.808Z,89.34
2022-10-18T06:53:15.809Z,89.60
2022-10-18T06:54:18.499Z,89.50
2022-10-18T06:55:15.795Z,90.00
2022-10-18T06:56:15.764Z,89.90
2022-10-18T06:57:15.780Z,89.60
2022-10-18T06:58:15.740Z,89.60
2022-10-18T06:59:15.730Z,89.90
2022-10-18T07:00:15.752Z,90.50
2022-10-18T07:01:15.784Z,91.15
2022-10-18T07:02:15.699Z,89.44
2022-10-18T07:03:15.681Z,89.84
2022-10-18T07:04:15.687Z,89.95
2022-10-18T07:05:15.662Z,88.79
2022-10-18T07:06:15.661Z,90.05
2022-10-18T07:07:15.642Z,89.95
2022-10-18T07:08:15.631Z,89.00
2022-10-18T07:09:15.623Z,88.70
2022-10-18T07:10:15.602Z,89.50
2022-10-18T07:11:15.663Z,89.00
2022-10-18T07:12:15.582Z,89.10
2022-10-18T07:13:31.627Z,89.15
2022-10-18T07:14:16.669Z,89.26
2022-10-18T07:15:15.552Z,89.56
2022-10-18T07:16:18.157Z,89.26
2022-10-18T07:17:15.552Z,89.26
2022-10-18T07:18:15.512Z,88.85
2022-10-18T07:19:15.546Z,89.76
2022-10-18T07:20:15.492Z,90.77
2022-10-18T07:21:15.573Z,90.61
2022-10-18T07:22:15.473Z,90.30
2022-10-18T07:23:15.483Z,90.06
2022-10-18T07:24:15.453Z,89.06
2022-10-18T07:25:15.434Z,90.36
2022-10-18T07:26:15.425Z,89.26
2022-10-18T07:27:15.417Z,90.26
2022-10-18T07:28:15.404Z,90.26
2022-10-18T07:29:15.645Z,91.06
2022-10-18T07:30:15.401Z,90.36
2022-10-18T07:31:15.373Z,89.56
2022-10-18T07:32:15.364Z,89.56
2022-10-18T07:33:15.354Z,89.46
2022-10-18T07:34:15.355Z,89.06
2022-10-18T07:35:15.328Z,88.85
2022-10-18T07:36:15.334Z,89.56
2022-10-18T07:37:15.308Z,89.15
2022-10-18T07:38:15.333Z,90.16
2022-10-18T07:39:15.284Z,91.67
2022-10-18T07:40:15.293Z,92.82
2022-10-18T07:41:15.264Z,90.30
2022-10-18T07:42:15.253Z,89.30
2022-10-18T07:43:15.247Z,89.20
2022-10-18T07:44:15.229Z,88.70
2022-10-18T07:45:15.230Z,89.10
2022-10-18T07:46:15.258Z,89.30
2022-10-18T07:47:15.210Z,88.29
2022-10-18T07:48:15.216Z,88.70
2022-10-18T07:49:15.177Z,88.59
2022-10-18T07:50:15.159Z,88.75
2022-10-18T07:51:15.156Z,88.25
2022-10-18T07:52:15.155Z,88.75
2022-10-18T07:53:15.125Z,88.85
2022-10-18T07:54:15.118Z,90.46
2022-10-18T07:55:15.107Z,90.66
2022-10-18T07:56:15.095Z,90.66
2022-10-18T07:57:15.147Z,89.86
2022-10-18T07:58:15.074Z,90.06
2022-10-18T07:59:15.067Z,90.32
2022-10-18T08:00:15.047Z,90.22
2022-10-18T08:01:15.098Z,90.92
2022-10-18T08:02:15.028Z,90.82
2022-10-18T08:03:15.047Z,89.92
2022-10-18T08:04:16.505Z,91.22
2022-10-18T08:05:15.032Z,91.63
2022-10-18T08:06:15.027Z,91.02
2022-10-18T08:07:14.999Z,90.32
2022-10-18T08:08:14.968Z,89.72
2022-10-18T08:09:14.979Z,89.42
2022-10-18T08:10:14.968Z,89.76
2022-10-18T08:11:14.937Z,88.91
2022-10-18T08:12:14.918Z,90.46
2022-10-18T08:13:14.908Z,89.76
2022-10-18T08:14:14.949Z,89.56
2022-10-18T08:15:14.907Z,88.55
2022-10-18T08:16:14.898Z,88.85
2022-10-18T08:17:14.908Z,88.55
2022-10-18T08:18:14.878Z,88.85
2022-10-18T08:19:14.869Z,89.76
2022-10-18T08:20:29.841Z,88.65
2022-10-18T08:21:15.819Z,87.45
2022-10-18T08:22:14.819Z,88.45
2022-10-18T08:23:14.809Z,88.45
2022-10-18T08:24:15.069Z,87.55
2022-10-18T08:25:14.779Z,90.06
2022-10-18T08:26:14.801Z,89.46
2022-10-18T08:27:14.760Z,87.59
2022-10-18T08:28:14.751Z,88.85
2022-10-18T08:29:23.287Z,87.69
2022-10-18T08:30:15.751Z,87.75
2022-10-18T08:31:14.730Z,88.55
2022-10-18T08:32:14.718Z,88.95
2022-10-18T08:33:14.699Z,88.39
2022-10-18T08:34:18.724Z,90.41
2022-10-18T08:35:15.670Z,88.39
2022-10-18T08:36:14.660Z,88.13
2022-10-18T08:37:14.741Z,87.08
2022-10-18T08:38:18.034Z,87.79
2022-10-18T08:39:14.621Z,87.19
2022-10-18T08:40:14.614Z,88.59
2022-10-18T08:41:14.661Z,87.99
2022-10-18T08:42:14.592Z,89.14
2022-10-18T08:43:17.019Z,87.59
2022-10-18T08:44:15.572Z,87.73
2022-10-18T08:45:30.285Z,87.43
2022-10-18T08:46:15.553Z,87.13
2022-10-18T08:47:14.541Z,87.73
2022-10-18T08:48:14.532Z,87.49
2022-10-18T08:49:14.532Z,87.19
2022-10-18T08:50:14.525Z,87.49
2022-10-18T08:51:14.512Z,89.30
2022-10-18T08:52:14.482Z,87.59
2022-10-18T08:53:14.485Z,87.99
2022-10-18T08:54:14.525Z,87.69
2022-10-18T08:55:14.452Z,88.65
2022-10-18T08:56:14.450Z,89.06
2022-10-18T08:57:14.422Z,88.95
2022-10-18T08:58:14.413Z,89.42
2022-10-18T08:59:14.403Z,89.72
2022-10-18T09:00:14.453Z,90.72
2022-10-18T09:01:14.385Z,90.92
2022-10-18T09:02:14.393Z,90.92
2022-10-18T09:03:14.408Z,91.08
2022-10-18T09:04:14.395Z,91.22
2022-10-18T09:05:14.366Z,91.02
2022-10-18T09:06:14.324Z,92.23
2022-10-18T09:07:14.314Z,91.52
2022-10-18T09:08:14.304Z,91.22
2022-10-18T09:09:14.294Z,91.97
2022-10-18T09:10:14.285Z,91.67
2022-10-18T09:11:14.294Z,90.06
2022-10-18T09:12:14.264Z,90.97
2022-10-18T09:13:14.257Z,91.47
2022-10-18T09:14:14.245Z,89.96
2022-10-18T09:15:14.247Z,91.22
2022-10-18T09:16:14.215Z,91.83
2022-10-18T09:17:16.133Z,90.72
2022-10-18T09:18:14.226Z,90.58
2022-10-18T09:19:14.198Z,93.39
2022-10-18T09:20:14.184Z,92.38
2022-10-18T09:21:14.195Z,92.65
2022-10-18T09:22:14.160Z,95.36
2022-10-18T09:23:14.158Z,93.15
2022-10-18T09:24:14.131Z,94.10
2022-10-18T09:25:14.118Z,93.80
2022-10-18T09:26:14.126Z,93.40
2022-10-18T09:27:14.086Z,93.10
2022-10-18T09:28:14.106Z,93.60
2022-10-18T09:29:14.167Z,94.81
2022-10-18T09:30:14.066Z,96.01
2022-10-18T09:31:14.047Z,95.55
2022-10-18T09:32:14.037Z,95.36
2022-10-18T09:33:14.028Z,93.74
2022-10-18T09:34:14.037Z,93.90
2022-10-18T09:35:14.011Z,95.15
2022-10-18T09:36:13.996Z,95.25
2022-10-18T09:37:14.017Z,93.69
2022-10-18T09:38:14.094Z,94.59
2022-10-18T09:39:13.964Z,94.70
2022-10-18T09:40:16.655Z,93.99
2022-10-18T09:41:14.938Z,93.79
2022-10-18T09:42:13.929Z,93.35
2022-10-18T09:43:13.928Z,94.90
2022-10-18T09:44:13.900Z,94.05
2022-10-18T09:45:13.888Z,95.30
2022-10-18T09:46:13.919Z,93.79
2022-10-18T09:47:16.865Z,93.65
2022-10-18T09:48:13.874Z,94.70
2022-10-18T09:49:15.688Z,94.09
2022-10-18T09:50:13.839Z,92.54
2022-10-18T09:51:13.821Z,95.65
2022-10-18T09:52:13.830Z,95.80
2022-10-18T09:53:13.800Z,95.00
2022-10-18T09:54:13.813Z,95.25
2022-10-18T09:55:13.780Z,94.45
2022-10-18T09:56:13.772Z,96.36
2022-10-18T09:57:13.779Z,96.00
2022-10-18T09:58:13.750Z,95.86
2022-10-18T09:59:13.750Z,94.25
2022-10-18T10:00:20.775Z,97.46
2022-10-18T10:01:13.716Z,97.66
2022-10-18T10:02:13.736Z,97.96
2022-10-18T10:03:13.706Z,96.86
2022-10-18T10:04:13.687Z,96.45
2022-10-18T10:05:13.688Z,97.46
2022-10-18T10:06:13.657Z,96.36
2022-10-18T10:07:13.646Z,95.51
2022-10-18T10:08:13.637Z,97.36
2022-10-18T10:09:13.662Z,97.16
2022-10-18T10:10:13.625Z,97.46
2022-10-18T10:11:13.607Z,96.96
2022-10-18T10:12:13.597Z,96.81
2022-10-18T10:13:13.579Z,98.92
2022-10-18T10:14:13.632Z,98.07
2022-10-18T10:15:13.587Z,96.56
2022-10-18T10:16:13.548Z,96.80
2022-10-18T10:17:13.528Z,96.10
2022-10-18T10:18:13.528Z,97.71
2022-10-18T10:19:13.509Z,98.25
2022-10-18T10:20:13.499Z,96.70
2022-10-18T10:21:13.518Z,96.30
2022-10-18T10:22:13.489Z,97.61
2022-10-18T10:23:13.508Z,97.76
2022-10-18T10:24:13.459Z,98.36
2022-10-18T10:25:13.450Z,97.41
2022-10-18T10:26:13.440Z,97.52
2022-10-18T10:27:13.440Z,98.07
2022-10-18T10:28:13.418Z,97.82
2022-10-18T10:29:17.517Z,97.82
2022-10-18T10:30:14.436Z,98.08
2022-10-18T10:31:13.379Z,97.43
2022-10-18T10:32:13.416Z,97.83
2022-10-18T10:33:13.391Z,97.83
2022-10-18T10:34:13.351Z,98.03
2022-10-18T10:35:22.606Z,97.63
2022-10-18T10:36:14.330Z,96.97
2022-10-18T10:37:13.311Z,96.47
2022-10-18T10:38:13.321Z,97.08
2022-10-18T10:39:13.291Z,97.12
2022-10-18T10:40:18.196Z,97.12
2022-10-18T10:41:14.270Z,97.62
2022-10-18T10:42:13.262Z,97.22
2022-10-18T10:43:32.865Z,96.97
2022-10-18T10:44:14.253Z,97.42
2022-10-18T10:45:13.224Z,97.52
2022-10-18T10:46:13.273Z,97.92
2022-10-18T10:47:13.205Z,97.82
2022-10-18T10:48:13.192Z,97.87
2022-10-18T10:49:38.383Z,97.67
2022-10-18T10:50:14.173Z,97.77
2022-10-18T10:51:13.155Z,97.47
2022-10-18T10:52:26.412Z,97.57
2022-10-18T10:53:14.135Z,97.72
2022-10-18T10:54:13.133Z,97.57
2022-10-18T10:55:30.772Z,97.77
2022-10-18T10:56:15.865Z,97.72
2022-10-18T10:57:13.093Z,97.72
2022-10-18T10:58:13.086Z,97.02
2022-10-18T10:59:13.088Z,97.17
2022-10-18T11:00:13.095Z,97.42
2022-10-18T11:01:13.066Z,97.12
2022-10-18T11:02:13.036Z,97.22
2022-10-18T11:03:27.934Z,97.17
2022-10-18T11:04:14.078Z,96.17
2022-10-18T11:05:13.003Z,96.27
2022-10-18T11:06:13.765Z,96.13
2022-10-18T11:07:12.986Z,94.93
2022-10-18T11:08:12.977Z,94.53
2022-10-18T11:09:12.968Z,94.38
2022-10-18T11:10:13.040Z,94.18
2022-10-18T11:11:12.935Z,92.88
2022-10-18T11:12:12.962Z,92.42
2022-10-18T11:13:12.917Z,93.08
2022-10-18T11:14:25.300Z,92.12
2022-10-18T11:15:13.895Z,93.02
2022-10-18T11:16:12.877Z,93.23
2022-10-18T11:17:12.869Z,92.27
2022-10-18T11:18:12.896Z,92.36
2022-10-18T11:19:12.865Z,91.92
2022-10-18T11:20:12.854Z,91.72
2022-10-18T11:21:12.828Z,91.58
2022-10-18T11:22:12.817Z,90.94
2022-10-18T11:23:12.798Z,90.23
2022-10-18T11:24:12.816Z,88.57
2022-10-18T11:25:12.779Z,88.28
2022-10-18T11:26:12.780Z,89.58
2022-10-18T11:27:12.760Z,89.03
2022-10-18T11:28:12.769Z,90.33
2022-10-18T11:29:12.765Z,89.79
2022-10-18T11:30:12.730Z,89.65
2022-10-18T11:31:12.712Z,88.67
2022-10-18T11:32:12.709Z,84.77
2022-10-18T11:33:12.691Z,84.45
2022-10-18T11:34:12.680Z,85.53
2022-10-18T11:35:12.688Z,87.57
2022-10-18T11:36:12.702Z,89.64
2022-10-18T11:37:28.573Z,88.23
2022-10-18T11:38:13.641Z,89.29
2022-10-18T11:39:12.622Z,88.33
2022-10-18T11:40:12.621Z,88.13
2022-10-18T11:41:12.623Z,88.98
2022-10-18T11:42:12.591Z,89.53
2022-10-18T11:43:12.579Z,88.87
2022-10-18T11:44:12.571Z,90.28
2022-10-18T11:45:12.552Z,89.83
2022-10-18T11:46:12.542Z,89.94
2022-10-18T11:47:12.582Z,89.03
2022-10-18T11:48:12.523Z,89.98
2022-10-18T11:49:12.511Z,87.98
2022-10-18T11:50:12.501Z,87.68
2022-10-18T11:51:12.485Z,87.87
2022-10-18T11:52:12.503Z,89.23
2022-10-18T11:53:12.463Z,87.83
2022-10-18T11:54:12.474Z,87.43
2022-10-18T11:55:12.443Z,88.43
2022-10-18T11:56:12.442Z,87.23
2022-10-18T11:57:12.427Z,87.07
2022-10-18T11:58:12.435Z,87.62
2022-10-18T11:59:12.395Z,88.92
2022-10-18T12:00:12.406Z,88.66
2022-10-18T12:01:12.379Z,90.36
2022-10-18T12:02:12.410Z,91.16
2022-10-18T12:03:12.414Z,90.96
2022-10-18T12:04:12.367Z,92.36
2022-10-18T12:05:22.966Z,91.92
2022-10-18T12:06:13.327Z,90.48
2022-10-18T12:07:12.307Z,90.33
2022-10-18T12:08:12.306Z,88.43
2022-10-18T12:09:12.306Z,88.53
2022-10-18T12:10:12.282Z,87.93
2022-10-18T12:11:12.267Z,87.83
2022-10-18T12:12:12.268Z,88.73
2022-10-18T12:13:12.247Z,88.43
2022-10-18T12:14:12.239Z,88.59
2022-10-18T12:15:12.237Z,88.23
2022-10-18T12:16:12.209Z,88.98
2022-10-18T12:17:40.728Z,89.87
2022-10-18T12:18:13.218Z,88.71
2022-10-18T12:19:12.182Z,89.32
2022-10-18T12:20:12.189Z,90.12
2022-10-18T12:21:12.158Z,90.56
2022-10-18T12:22:12.150Z,89.72
2022-10-18T12:23:12.136Z,88.62
2022-10-18T12:24:12.125Z,88.42
2022-10-18T12:25:12.109Z,87.87
2022-10-18T12:26:12.121Z,89.07
2022-10-18T12:27:12.088Z,87.63
2022-10-18T12:28:12.081Z,86.89
2022-10-18T12:29:12.071Z,84.99
2022-10-18T12:30:12.058Z,84.45
2022-10-18T12:31:12.039Z,84.25
2022-10-18T12:32:12.049Z,85.01
2022-10-18T12:33:27.290Z,82.41
2022-10-18T12:34:13.010Z,81.81
2022-10-18T12:35:11.998Z,83.05
2022-10-18T12:36:11.993Z,83.55
2022-10-18T12:37:12.002Z,82.85
2022-10-18T12:38:11.970Z,82.45
2022-10-18T12:39:11.958Z,82.19
2022-10-18T12:40:14.556Z,83.15
2022-10-18T12:41:12.948Z,83.95
2022-10-18T12:42:11.922Z,84.55
2022-10-18T12:43:11.940Z,81.79
2022-10-18T12:44:11.901Z,84.03
2022-10-18T12:45:11.894Z,85.33
2022-10-18T12:46:13.835Z,85.63
2022-10-18T12:47:11.876Z,86.03
2022-10-18T12:48:11.853Z,85.83
2022-10-18T12:49:11.856Z,85.23
2022-10-18T12:50:11.832Z,86.53
2022-10-18T12:51:11.822Z,85.33
2022-10-18T12:52:11.813Z,85.77